Terminal Aerodrome Forecast
Issued by NWS Springfield, MO

Home | Current Version | Previous Version | Text Only | Print | Product List | Glossary On
Versions: 1 2 3 4 5 6 7 8 9 10 11 12 13 14 15 16
790
FTUS43 KSGF 122321
TAFSGF
TAF
KSGF 122321Z 1300/1324 27006KT P6SM SKC
     FM130500 22006KT P6SM SKC
     FM131000 21011KT P6SM SKC WS012/25050KT
     FM131400 23017G27KT P6SM SKC
     FM131700 28019G28KT P6SM FEW250=

USA.gov is the U.S. government's official web portal to all federal, state and local government web resources and services.